createdAt,value
2023-04-16T00:01:06.341Z,8.22
2023-04-16T00:03:35.540Z,8.22
2023-04-16T00:06:04.872Z,8.23
2023-04-16T00:08:34.972Z,8.23
2023-04-16T00:11:03.324Z,8.22
2023-04-16T00:13:31.816Z,8.20
2023-04-16T00:16:00.229Z,8.18
2023-04-16T00:18:28.541Z,8.17
2023-04-16T00:20:57.197Z,8.17
2023-04-16T00:23:25.862Z,8.17
2023-04-16T00:25:59.255Z,8.15
2023-04-16T00:28:28.239Z,8.15
2023-04-16T00:30:56.766Z,8.13
2023-04-16T00:33:25.265Z,8.11
2023-04-16T00:35:54.323Z,8.08
2023-04-16T00:38:22.561Z,8.07
2023-04-16T00:40:51.018Z,8.06
2023-04-16T00:43:24.268Z,8.04
2023-04-16T00:45:56.664Z,8.05
2023-04-16T00:48:27.268Z,8.04
2023-04-16T00:50:55.843Z,8.03
2023-04-16T00:53:24.152Z,8.03
2023-04-16T00:55:52.621Z,8.02
2023-04-16T00:58:21.280Z,8.03
2023-04-16T01:00:50.296Z,8.03
2023-04-16T01:03:19.307Z,8.03
2023-04-16T01:05:50.091Z,8.02
2023-04-16T01:08:19.834Z,8.00
2023-04-16T01:10:48.449Z,7.98
2023-04-16T01:13:16.759Z,7.97
2023-04-16T01:15:45.143Z,7.96
2023-04-16T01:18:17.151Z,7.97
2023-04-16T01:20:45.797Z,7.95
2023-04-16T01:23:14.247Z,7.94
2023-04-16T01:25:42.494Z,7.94
2023-04-16T01:28:10.977Z,7.98
2023-04-16T01:30:39.358Z,8.00
2023-04-16T01:33:08.330Z,8.00
2023-04-16T01:35:37.144Z,7.99
2023-04-16T01:38:07.143Z,7.98
2023-04-16T01:40:35.943Z,7.99
2023-04-16T01:43:04.571Z,7.99
2023-04-16T01:45:33.301Z,7.98
2023-04-16T01:48:01.844Z,7.96
2023-04-16T01:50:30.955Z,7.96
2023-04-16T01:53:01.317Z,7.96
2023-04-16T01:55:29.733Z,7.96
2023-04-16T01:57:58.327Z,7.97
2023-04-16T02:00:26.707Z,7.98
2023-04-16T02:02:55.915Z,7.99
2023-04-16T02:05:24.449Z,7.99
2023-04-16T02:07:52.815Z,8.02
2023-04-16T02:10:21.534Z,8.02
2023-04-16T02:12:52.692Z,8.03
2023-04-16T02:15:21.019Z,8.03
2023-04-16T02:17:54.363Z,8.01
2023-04-16T02:20:23.394Z,8.00
2023-04-16T02:22:51.773Z,7.97
2023-04-16T02:25:20.054Z,7.97
2023-04-16T02:27:48.923Z,7.97
2023-04-16T02:30:17.792Z,7.97
2023-04-16T02:32:46.266Z,7.97
2023-04-16T02:35:15.183Z,7.97
2023-04-16T02:37:43.491Z,7.94
2023-04-16T02:40:12.867Z,7.93
2023-04-16T02:42:41.399Z,7.91
2023-04-16T02:45:12.052Z,7.91
2023-04-16T02:47:40.491Z,7.90
2023-04-16T02:50:10.442Z,7.89
2023-04-16T02:52:38.826Z,7.89
2023-04-16T02:55:09.179Z,7.90
2023-04-16T02:57:37.854Z,7.89
2023-04-16T03:00:09.225Z,7.87
2023-04-16T03:02:37.886Z,7.85
2023-04-16T03:05:07.707Z,7.83
2023-04-16T03:07:38.558Z,7.84
2023-04-16T03:10:09.352Z,7.84
2023-04-16T03:12:38.667Z,7.82
2023-04-16T03:15:08.960Z,7.81
2023-04-16T03:17:37.310Z,7.78
2023-04-16T03:20:09.615Z,7.77
2023-04-16T03:22:40.534Z,7.75
2023-04-16T03:25:09.732Z,7.74
2023-04-16T03:27:39.097Z,7.75
2023-04-16T03:30:10.378Z,7.77
2023-04-16T03:32:39.116Z,7.79
2023-04-16T03:35:09.091Z,7.80
2023-04-16T03:37:37.376Z,7.79
2023-04-16T03:40:07.780Z,7.79
2023-04-16T03:42:36.263Z,7.79
2023-04-16T03:45:05.774Z,7.78
2023-04-16T03:47:34.130Z,7.77
2023-04-16T03:50:02.599Z,7.77
2023-04-16T03:52:30.945Z,7.78
2023-04-16T03:55:01.091Z,7.75
2023-04-16T03:57:29.329Z,7.73
2023-04-16T03:59:57.700Z,7.72
2023-04-16T04:02:26.585Z,7.72
2023-04-16T04:04:55.600Z,7.72
2023-04-16T04:07:24.009Z,7.72
2023-04-16T04:09:52.679Z,7.72
2023-04-16T04:12:23.789Z,7.74
2023-04-16T04:14:52.326Z,7.74
2023-04-16T04:17:20.668Z,7.75
2023-04-16T04:20:00.512Z,7.76
2023-04-16T04:22:30.193Z,7.77
2023-04-16T04:24:58.558Z,7.78
2023-04-16T04:27:26.933Z,7.79
2023-04-16T04:29:56.232Z,7.79
2023-04-16T04:32:24.797Z,7.77
2023-04-16T04:34:53.167Z,7.78
2023-04-16T04:37:21.932Z,7.81
2023-04-16T04:39:52.328Z,7.84
2023-04-16T04:42:21.379Z,7.85
2023-04-16T04:44:49.795Z,7.87
2023-04-16T04:47:18.143Z,7.90
2023-04-16T04:49:46.443Z,7.92
2023-04-16T04:52:15.299Z,7.95
2023-04-16T04:54:43.891Z,7.97
2023-04-16T04:57:12.152Z,8.00
2023-04-16T04:59:40.554Z,8.02
2023-04-16T05:02:08.998Z,8.06
2023-04-16T05:04:37.414Z,8.08
2023-04-16T05:07:06.042Z,8.11
2023-04-16T05:09:34.365Z,8.11
2023-04-16T05:12:02.938Z,8.11
2023-04-16T05:14:31.566Z,8.12
2023-04-16T05:17:00.539Z,8.13
2023-04-16T05:19:28.861Z,8.17
2023-04-16T05:21:57.196Z,8.20
2023-04-16T05:24:25.550Z,8.24
2023-04-16T05:26:53.863Z,8.26
2023-04-16T05:29:22.228Z,8.27
2023-04-16T05:31:50.522Z,8.30
2023-04-16T05:34:18.857Z,8.33
2023-04-16T05:36:47.071Z,8.36
2023-04-16T05:39:17.989Z,8.39
2023-04-16T05:41:46.287Z,8.42
2023-04-16T05:44:15.359Z,8.44
2023-04-16T05:46:43.595Z,8.46
2023-04-16T05:49:12.138Z,8.47
2023-04-16T05:51:40.601Z,8.47
2023-04-16T05:54:08.941Z,8.44
2023-04-16T05:56:37.390Z,8.41
2023-04-16T05:59:05.797Z,8.40
2023-04-16T06:01:34.481Z,8.40
2023-04-16T06:04:03.182Z,8.39
2023-04-16T06:06:31.649Z,8.41
2023-04-16T06:09:00.339Z,8.41
2023-04-16T06:11:30.009Z,8.44
2023-04-16T06:13:58.278Z,8.46
2023-04-16T06:16:26.626Z,8.46
2023-04-16T06:18:55.485Z,8.46
2023-04-16T06:21:23.894Z,8.47
2023-04-16T06:23:52.277Z,8.48
2023-04-16T06:26:20.599Z,8.49
2023-04-16T06:28:49.623Z,8.50
2023-04-16T06:31:17.975Z,8.52
2023-04-16T06:33:46.213Z,8.54
2023-04-16T06:36:14.446Z,8.55
2023-04-16T06:38:43.074Z,8.55
2023-04-16T06:41:11.413Z,8.57
2023-04-16T06:43:39.759Z,8.58
2023-04-16T06:46:08.306Z,8.61
2023-04-16T06:48:36.584Z,8.64
2023-04-16T06:51:05.058Z,8.68
2023-04-16T06:53:33.371Z,8.72
2023-04-16T06:56:01.650Z,8.77
2023-04-16T06:58:29.993Z,8.80
2023-04-16T07:00:58.438Z,8.81
2023-04-16T07:03:26.996Z,8.82
2023-04-16T07:05:56.162Z,8.82
2023-04-16T07:08:24.571Z,8.85
2023-04-16T07:10:53.214Z,8.88
2023-04-16T07:13:21.642Z,8.94
2023-04-16T07:15:49.975Z,8.96
2023-04-16T07:18:20.276Z,9.01
2023-04-16T07:20:49.083Z,9.05
2023-04-16T07:23:17.501Z,9.06
2023-04-16T07:25:46.058Z,9.07
2023-04-16T07:28:16.074Z,9.09
2023-04-16T07:30:44.343Z,9.14
2023-04-16T07:33:12.633Z,9.20
2023-04-16T07:35:40.983Z,9.26
2023-04-16T07:38:09.681Z,9.30
2023-04-16T07:40:38.145Z,9.34
2023-04-16T07:43:06.530Z,9.39
2023-04-16T07:45:35.161Z,9.44
2023-04-16T07:48:04.583Z,9.48
2023-04-16T07:50:32.848Z,9.49
2023-04-16T07:53:01.736Z,9.50
2023-04-16T07:55:30.094Z,9.52
2023-04-16T07:57:58.424Z,9.56
2023-04-16T08:00:26.895Z,9.59
2023-04-16T08:02:55.397Z,9.59
2023-04-16T08:05:24.036Z,9.62
2023-04-16T08:07:52.409Z,9.66
2023-04-16T08:10:20.693Z,9.70
2023-04-16T08:12:49.235Z,9.73
2023-04-16T08:15:17.624Z,9.75
2023-04-16T08:17:46.046Z,9.74
2023-04-16T08:20:17.619Z,9.74
2023-04-16T08:22:49.212Z,9.76
2023-04-16T08:25:17.756Z,9.77
2023-04-16T08:27:45.999Z,9.81
2023-04-16T08:30:15.813Z,9.87
2023-04-16T08:32:44.382Z,9.93
2023-04-16T08:35:12.762Z,9.98
2023-04-16T08:37:41.373Z,10.05
2023-04-16T08:40:11.366Z,10.10
2023-04-16T08:42:44.036Z,10.12
2023-04-16T08:45:16.799Z,10.17
2023-04-16T08:47:46.956Z,10.22
2023-04-16T08:50:16.817Z,10.25
2023-04-16T08:52:49.738Z,10.30
2023-04-16T08:55:19.796Z,10.38
2023-04-16T08:57:50.798Z,10.48
2023-04-16T09:00:20.366Z,10.55
2023-04-16T09:02:49.701Z,10.59
2023-04-16T09:05:20.801Z,10.65
2023-04-16T09:07:49.272Z,10.69
2023-04-16T09:10:17.973Z,10.75
2023-04-16T09:12:46.918Z,10.79
2023-04-16T09:15:17.578Z,10.81
2023-04-16T09:17:46.024Z,10.83
2023-04-16T09:20:15.898Z,10.86
2023-04-16T09:22:44.330Z,10.88
2023-04-16T09:25:12.925Z,10.94
2023-04-16T09:27:41.691Z,11.00
2023-04-16T09:30:26.645Z,11.03
2023-04-16T09:33:13.343Z,11.08
2023-04-16T09:35:47.161Z,11.11
2023-04-16T09:38:16.330Z,11.12
2023-04-16T09:40:44.669Z,11.15
2023-04-16T09:43:13.978Z,11.15
2023-04-16T09:45:52.462Z,11.20
2023-04-16T09:48:30.253Z,11.26
2023-04-16T09:50:59.408Z,11.30
2023-04-16T09:53:28.892Z,11.35
2023-04-16T09:55:57.873Z,11.40
2023-04-16T09:58:26.834Z,11.44
2023-04-16T10:00:57.210Z,11.49
2023-04-16T10:03:31.347Z,11.52
2023-04-16T10:06:02.266Z,11.55
2023-04-16T10:08:30.588Z,11.58
2023-04-16T10:10:59.315Z,11.59
2023-04-16T10:13:27.651Z,11.62
2023-04-16T10:15:57.362Z,11.64
2023-04-16T10:18:26.819Z,11.67
2023-04-16T10:20:55.742Z,11.71
2023-04-16T10:23:23.978Z,11.74
2023-04-16T10:25:55.175Z,11.75
2023-04-16T10:28:25.437Z,11.76
2023-04-16T10:30:54.332Z,11.78
2023-04-16T10:33:23.923Z,11.78
2023-04-16T10:36:07.326Z,11.78
2023-04-16T10:38:38.839Z,11.79
2023-04-16T10:41:08.417Z,11.82
2023-04-16T10:43:41.423Z,11.85
2023-04-16T10:46:23.522Z,11.91
2023-04-16T10:48:54.498Z,11.98
2023-04-16T10:51:28.828Z,12.03
2023-04-16T10:53:58.543Z,12.07
2023-04-16T10:56:27.596Z,12.10
2023-04-16T10:58:56.062Z,12.16
2023-04-16T11:01:32.574Z,12.21
2023-04-16T11:04:02.306Z,12.28
2023-04-16T11:06:31.571Z,12.33
2023-04-16T11:08:59.929Z,12.37
2023-04-16T11:11:29.604Z,12.38
2023-04-16T11:13:57.968Z,12.38
2023-04-16T11:16:27.075Z,12.43
2023-04-16T11:19:07.951Z,12.47
2023-04-16T11:21:36.727Z,12.46
2023-04-16T11:24:05.551Z,12.42
2023-04-16T11:26:34.480Z,12.44
2023-04-16T11:29:04.352Z,12.49
2023-04-16T11:31:32.898Z,12.59
2023-04-16T11:34:03.129Z,12.66
2023-04-16T11:36:44.188Z,12.69
2023-04-16T11:39:13.113Z,12.75
2023-04-16T11:41:44.412Z,12.82
2023-04-16T11:44:20.119Z,12.97
2023-04-16T11:46:49.485Z,13.09
2023-04-16T11:49:18.551Z,13.24
2023-04-16T11:51:47.925Z,13.48
2023-04-16T11:54:24.932Z,13.80
2023-04-16T11:56:54.085Z,14.28
2023-04-16T11:59:24.025Z,14.76
2023-04-16T12:01:54.960Z,15.18
2023-04-16T12:04:24.943Z,15.65
2023-04-16T12:07:07.067Z,16.10
2023-04-16T12:09:38.676Z,16.33
2023-04-16T12:12:26.136Z,16.48
2023-04-16T12:14:56.161Z,16.79
2023-04-16T12:17:24.900Z,17.42
2023-04-16T12:19:56.794Z,18.13
2023-04-16T12:22:29.835Z,18.49
2023-04-16T12:25:00.615Z,18.92
2023-04-16T12:27:46.238Z,19.30
2023-04-16T12:30:15.834Z,19.76
2023-04-16T12:32:46.669Z,19.60
2023-04-16T12:35:30.448Z,19.26
2023-04-16T12:37:58.869Z,19.35
2023-04-16T12:40:27.260Z,19.32
2023-04-16T12:42:55.700Z,19.13
2023-04-16T12:45:24.679Z,18.72
2023-04-16T12:47:53.044Z,18.61
2023-04-16T12:50:21.469Z,18.64
2023-04-16T12:52:49.838Z,18.53
2023-04-16T12:55:18.566Z,18.36
2023-04-16T12:57:48.270Z,18.35
2023-04-16T13:00:17.760Z,18.32
2023-04-16T13:02:46.447Z,18.49
2023-04-16T13:05:17.954Z,18.67
2023-04-16T13:07:46.528Z,18.78
2023-04-16T13:10:14.779Z,19.16
2023-04-16T13:12:43.260Z,19.65
2023-04-16T13:15:12.143Z,19.97
2023-04-16T13:17:40.422Z,20.17
2023-04-16T13:20:10.733Z,20.25
2023-04-16T13:22:40.008Z,20.11
2023-04-16T13:25:10.087Z,19.77
2023-04-16T13:27:38.622Z,19.41
2023-04-16T13:30:09.162Z,19.03
2023-04-16T13:32:37.772Z,18.69
2023-04-16T13:35:07.384Z,18.48
2023-04-16T13:37:36.172Z,18.28
2023-04-16T13:40:06.209Z,18.16
2023-04-16T13:42:34.629Z,18.36
2023-04-16T13:45:03.016Z,18.72
2023-04-16T13:47:31.425Z,18.96
2023-04-16T13:49:59.902Z,18.73
2023-04-16T13:52:28.366Z,18.55
2023-04-16T13:54:57.852Z,18.52
2023-04-16T13:57:28.918Z,18.46
2023-04-16T13:59:57.523Z,18.34
2023-04-16T14:02:26.102Z,18.21
2023-04-16T14:04:54.906Z,18.11
2023-04-16T14:07:26.944Z,18.01
2023-04-16T14:09:55.811Z,17.95
2023-04-16T14:12:24.498Z,18.06
2023-04-16T14:14:55.750Z,17.98
2023-04-16T14:17:24.351Z,17.81
2023-04-16T14:19:52.868Z,17.69
2023-04-16T14:22:21.200Z,17.65
2023-04-16T14:24:49.927Z,17.36
2023-04-16T14:27:18.350Z,17.04
2023-04-16T14:29:46.658Z,16.91
2023-04-16T14:32:15.120Z,16.93
2023-04-16T14:34:43.525Z,17.07
2023-04-16T14:37:11.994Z,17.52
2023-04-16T14:39:40.629Z,17.72
2023-04-16T14:42:09.300Z,17.42
2023-04-16T14:44:38.261Z,17.13
2023-04-16T14:47:07.977Z,17.07
2023-04-16T14:49:36.344Z,17.67
2023-04-16T14:52:06.556Z,18.48
2023-04-16T14:54:35.295Z,19.23
2023-04-16T14:57:03.843Z,20.32
2023-04-16T14:59:32.191Z,21.46
2023-04-16T15:02:00.914Z,22.08
2023-04-16T15:04:30.559Z,22.37
2023-04-16T15:06:59.046Z,22.55
2023-04-16T15:09:27.564Z,22.59
2023-04-16T15:11:56.515Z,22.47
2023-04-16T15:14:24.906Z,22.91
2023-04-16T15:16:53.812Z,23.34
2023-04-16T15:19:22.629Z,23.37
2023-04-16T15:21:51.026Z,23.86
2023-04-16T15:24:19.427Z,24.44
2023-04-16T15:26:47.843Z,24.65
2023-04-16T15:29:16.122Z,24.10
2023-04-16T15:31:44.798Z,23.71
2023-04-16T15:34:13.497Z,23.77
2023-04-16T15:36:42.264Z,24.18
2023-04-16T15:39:11.445Z,24.83
2023-04-16T15:41:53.647Z,24.98
2023-04-16T15:44:29.104Z,24.81
2023-04-16T15:46:57.558Z,25.20
2023-04-16T15:49:26.118Z,25.73
2023-04-16T15:51:54.985Z,25.91
2023-04-16T15:54:24.097Z,25.74
2023-04-16T15:56:52.785Z,25.19
2023-04-16T15:59:21.370Z,24.91
2023-04-16T16:01:49.917Z,24.82
2023-04-16T16:04:18.389Z,24.69
2023-04-16T16:06:46.751Z,24.31
2023-04-16T16:09:15.194Z,24.05
2023-04-16T16:11:43.560Z,24.12
2023-04-16T16:14:13.482Z,24.37
2023-04-16T16:16:41.943Z,24.61
2023-04-16T16:19:10.727Z,24.78
2023-04-16T16:21:39.469Z,24.85
2023-04-16T16:24:08.832Z,24.77
2023-04-16T16:26:37.263Z,24.57
2023-04-16T16:29:06.794Z,24.47
2023-04-16T16:31:35.336Z,23.72
2023-04-16T16:34:03.918Z,22.35
2023-04-16T16:36:36.083Z,21.05
2023-04-16T16:39:04.779Z,19.96
2023-04-16T16:41:37.272Z,19.16
2023-04-16T16:44:06.364Z,18.63
2023-04-16T16:46:35.808Z,18.19
2023-04-16T16:49:05.434Z,17.76
2023-04-16T16:51:34.143Z,17.38
2023-04-16T16:54:02.618Z,17.05
2023-04-16T16:56:30.918Z,16.68
2023-04-16T16:59:02.573Z,16.35
2023-04-16T17:01:31.430Z,15.92
2023-04-16T17:04:00.147Z,15.45
2023-04-16T17:06:28.686Z,15.07
2023-04-16T17:08:57.027Z,14.85
2023-04-16T17:11:26.630Z,14.69
2023-04-16T17:13:55.011Z,14.51
2023-04-16T17:16:23.571Z,14.36
2023-04-16T17:18:52.195Z,14.18
2023-04-16T17:21:20.996Z,14.01
2023-04-16T17:23:49.315Z,13.87
2023-04-16T17:26:17.693Z,13.73
2023-04-16T17:28:46.248Z,13.59
2023-04-16T17:31:14.662Z,13.44
2023-04-16T17:33:43.867Z,13.34
2023-04-16T17:36:12.388Z,13.24
2023-04-16T17:38:44.977Z,13.16
2023-04-16T17:41:13.510Z,13.08
2023-04-16T17:43:42.417Z,12.99
2023-04-16T17:46:11.375Z,12.88
2023-04-16T17:48:39.975Z,12.76
2023-04-16T17:51:12.275Z,12.68
2023-04-16T17:53:41.979Z,12.61
2023-04-16T17:56:10.294Z,12.55
2023-04-16T17:58:38.560Z,12.50
2023-04-16T18:01:06.948Z,12.45
2023-04-16T18:03:36.489Z,12.41
2023-04-16T18:06:05.552Z,12.37
2023-04-16T18:08:36.210Z,12.30
2023-04-16T18:11:08.008Z,12.25
2023-04-16T18:13:36.927Z,12.19
2023-04-16T18:16:06.847Z,12.14
2023-04-16T18:18:35.681Z,12.10
2023-04-16T18:21:04.432Z,12.05
2023-04-16T18:23:32.680Z,11.99
2023-04-16T18:26:00.999Z,11.95
2023-04-16T18:28:30.051Z,11.92
2023-04-16T18:31:03.261Z,11.89
2023-04-16T18:36:03.289Z,11.85
2023-04-16T18:38:31.747Z,11.81
2023-04-16T18:41:01.738Z,11.77
2023-04-16T18:43:30.438Z,11.74
2023-04-16T18:45:58.782Z,11.70
2023-04-16T18:48:27.287Z,11.65
2023-04-16T18:50:57.449Z,11.62
2023-04-16T18:53:25.843Z,11.56
2023-04-16T18:55:54.564Z,11.47
2023-04-16T18:58:22.937Z,11.38
2023-04-16T19:00:53.671Z,11.26
2023-04-16T19:03:24.750Z,11.15
2023-04-16T19:05:53.186Z,11.05
2023-04-16T19:08:21.456Z,10.98
2023-04-16T19:10:50.246Z,10.89
2023-04-16T19:13:18.932Z,10.82
2023-04-16T19:15:47.295Z,10.73
2023-04-16T19:18:15.780Z,10.66
2023-04-16T19:20:44.130Z,10.60
2023-04-16T19:23:13.314Z,10.56
2023-04-16T19:25:42.286Z,10.53
2023-04-16T19:28:10.632Z,10.50
2023-04-16T19:30:39.823Z,10.47
2023-04-16T19:33:08.308Z,10.45
2023-04-16T19:35:36.635Z,10.43
2023-04-16T19:38:05.030Z,10.37
2023-04-16T19:40:34.018Z,10.31
2023-04-16T19:43:03.147Z,10.26
2023-04-16T19:45:31.454Z,10.20
2023-04-16T19:48:00.319Z,10.15
2023-04-16T19:50:29.106Z,10.09
2023-04-16T19:52:57.410Z,10.03
2023-04-16T19:55:26.834Z,9.99
2023-04-16T19:57:55.256Z,9.95
2023-04-16T20:00:23.698Z,9.91
2023-04-16T20:02:52.222Z,9.89
2023-04-16T20:05:20.597Z,9.87
2023-04-16T20:07:50.325Z,9.85
2023-04-16T20:10:20.832Z,9.83
2023-04-16T20:12:50.202Z,9.82
2023-04-16T20:15:18.716Z,9.81
2023-04-16T20:17:47.322Z,9.78
2023-04-16T20:20:16.103Z,9.72
2023-04-16T20:22:44.409Z,9.68
2023-04-16T20:25:14.029Z,9.63
2023-04-16T20:27:42.264Z,9.58
2023-04-16T20:30:13.017Z,9.55
2023-04-16T20:32:41.488Z,9.52
2023-04-16T20:35:11.053Z,9.48
2023-04-16T20:37:41.481Z,9.45
2023-04-16T20:40:14.365Z,9.44
2023-04-16T20:42:45.514Z,9.42
2023-04-16T20:45:14.115Z,9.41
2023-04-16T20:47:43.330Z,9.37
2023-04-16T20:50:13.003Z,9.35
2023-04-16T20:52:42.066Z,9.33
2023-04-16T20:55:10.770Z,9.32
2023-04-16T20:57:39.107Z,9.33
2023-04-16T21:00:13.589Z,9.32
2023-04-16T21:02:42.157Z,9.31
2023-04-16T21:05:14.019Z,9.29
2023-04-16T21:07:42.456Z,9.27
2023-04-16T21:10:11.750Z,9.26
2023-04-16T21:12:40.109Z,9.26
2023-04-16T21:15:09.935Z,9.25
2023-04-16T21:17:38.539Z,9.23
2023-04-16T21:20:12.875Z,9.22
2023-04-16T21:22:41.256Z,9.21
2023-04-16T21:25:10.865Z,9.19
2023-04-16T21:27:39.223Z,9.20
2023-04-16T21:30:10.199Z,9.19
2023-04-16T21:32:38.920Z,9.18
2023-04-16T21:35:10.582Z,9.17
2023-04-16T21:37:38.892Z,9.18
2023-04-16T21:40:09.024Z,9.19
2023-04-16T21:42:39.339Z,9.20
2023-04-16T21:45:09.795Z,9.21
2023-04-16T21:47:38.448Z,9.21
2023-04-16T21:50:09.062Z,9.21
2023-04-16T21:52:39.780Z,9.22
2023-04-16T21:55:09.798Z,9.21
2023-04-16T21:57:38.093Z,9.21
2023-04-16T22:00:12.970Z,9.22
2023-04-16T22:02:42.083Z,9.20
2023-04-16T22:05:11.032Z,9.19
2023-04-16T22:07:39.416Z,9.18
2023-04-16T22:10:10.003Z,9.17
2023-04-16T22:12:39.007Z,9.17
2023-04-16T22:15:09.698Z,9.14
2023-04-16T22:17:38.762Z,9.13
2023-04-16T22:20:12.214Z,9.11
2023-04-16T22:22:41.169Z,9.11
2023-04-16T22:25:10.271Z,9.10
2023-04-16T22:27:38.682Z,9.08
2023-04-16T22:30:09.150Z,9.07
2023-04-16T22:32:37.741Z,9.07
2023-04-16T22:35:07.641Z,9.07
2023-04-16T22:37:36.313Z,9.04
2023-04-16T22:40:10.962Z,9.05
2023-04-16T22:42:39.307Z,9.04
2023-04-16T22:45:09.176Z,9.02
2023-04-16T22:47:37.618Z,9.03
2023-04-16T22:50:08.357Z,9.02
2023-04-16T22:52:36.805Z,9.02
2023-04-16T22:55:06.884Z,9.01
2023-04-16T22:57:35.194Z,9.00
2023-04-16T23:00:06.210Z,9.00
2023-04-16T23:02:34.597Z,8.97
2023-04-16T23:05:04.391Z,8.91
2023-04-16T23:07:32.718Z,8.89
2023-04-16T23:10:01.023Z,8.88
2023-04-16T23:12:29.243Z,8.88
2023-04-16T23:14:57.821Z,8.88
2023-04-16T23:17:26.574Z,8.89
2023-04-16T23:19:54.960Z,8.86
2023-04-16T23:22:23.378Z,8.82
2023-04-16T23:24:52.269Z,8.81
2023-04-16T23:27:20.585Z,8.81
2023-04-16T23:29:48.921Z,8.78
2023-04-16T23:32:17.341Z,8.77
2023-04-16T23:34:45.712Z,8.77
2023-04-16T23:37:14.003Z,8.75
2023-04-16T23:39:42.469Z,8.72
2023-04-16T23:42:10.825Z,8.71
2023-04-16T23:44:39.116Z,8.70
2023-04-16T23:47:07.735Z,8.70
2023-04-16T23:49:36.651Z,8.70
2023-04-16T23:52:05.482Z,8.69
2023-04-16T23:54:33.839Z,8.69
2023-04-16T23:57:02.141Z,8.68
2023-04-16T23:59:30.497Z,8.65
